sensor_id;sensor_type;location;lat;lon;timestamp;temperature;humidity
23233;DHT22;11785;49.500;8.288;2023-03-23T00:01:00;14.30;58.70
23233;DHT22;11785;49.500;8.288;2023-03-23T00:03:27;14.40;58.60
23233;DHT22;11785;49.500;8.288;2023-03-23T00:05:55;14.30;58.70
23233;DHT22;11785;49.500;8.288;2023-03-23T00:08:25;14.20;58.70
23233;DHT22;11785;49.500;8.288;2023-03-23T00:10:52;14.20;58.70
23233;DHT22;11785;49.500;8.288;2023-03-23T00:13:24;14.20;58.70
23233;DHT22;11785;49.500;8.288;2023-03-23T00:15:51;14.20;58.70
23233;DHT22;11785;49.500;8.288;2023-03-23T00:18:22;14.20;58.70
23233;DHT22;11785;49.500;8.288;2023-03-23T00:20:56;14.20;58.70
23233;DHT22;11785;49.500;8.288;2023-03-23T00:23:24;14.20;58.70
23233;DHT22;11785;49.500;8.288;2023-03-23T00:25:52;14.20;58.70
23233;DHT22;11785;49.500;8.288;2023-03-23T00:28:19;14.20;58.70
23233;DHT22;11785;49.500;8.288;2023-03-23T00:30:57;14.20;58.70
23233;DHT22;11785;49.500;8.288;2023-03-23T00:33:24;14.10;58.70
23233;DHT22;11785;49.500;8.288;2023-03-23T00:35:51;14.10;58.70
23233;DHT22;11785;49.500;8.288;2023-03-23T00:38:22;14.20;58.70
23233;DHT22;11785;49.500;8.288;2023-03-23T00:40:49;14.20;58.70
23233;DHT22;11785;49.500;8.288;2023-03-23T00:43:16;14.20;58.70
23233;DHT22;11785;49.500;8.288;2023-03-23T00:45:43;14.20;58.70
23233;DHT22;11785;49.500;8.288;2023-03-23T00:48:10;14.20;58.70
23233;DHT22;11785;49.500;8.288;2023-03-23T00:50:38;14.20;58.70
23233;DHT22;11785;49.500;8.288;2023-03-23T00:53:03;14.20;58.70
23233;DHT22;11785;49.500;8.288;2023-03-23T00:55:29;14.20;58.70
23233;DHT22;11785;49.500;8.288;2023-03-23T00:57:56;14.10;58.80
23233;DHT22;11785;49.500;8.288;2023-03-23T01:00:22;14.10;58.80
23233;DHT22;11785;49.500;8.288;2023-03-23T01:02:48;14.00;58.80
23233;DHT22;11785;49.500;8.288;2023-03-23T01:05:17;14.00;58.80
23233;DHT22;11785;49.500;8.288;2023-03-23T01:07:43;14.10;58.70
23233;DHT22;11785;49.500;8.288;2023-03-23T01:10:10;14.10;58.80
23233;DHT22;11785;49.500;8.288;2023-03-23T01:12:38;14.10;58.70
23233;DHT22;11785;49.500;8.288;2023-03-23T01:15:05;14.10;58.80
23233;DHT22;11785;49.500;8.288;2023-03-23T01:17:31;14.10;58.70
23233;DHT22;11785;49.500;8.288;2023-03-23T01:19:57;14.10;58.70
23233;DHT22;11785;49.500;8.288;2023-03-23T01:22:22;14.20;58.70
23233;DHT22;11785;49.500;8.288;2023-03-23T01:24:48;14.20;58.70
23233;DHT22;11785;49.500;8.288;2023-03-23T01:27:13;14.10;58.70
23233;DHT22;11785;49.500;8.288;2023-03-23T01:29:39;14.10;58.70
23233;DHT22;11785;49.500;8.288;2023-03-23T01:32:05;14.00;58.80
23233;DHT22;11785;49.500;8.288;2023-03-23T01:34:31;14.00;58.80
23233;DHT22;11785;49.500;8.288;2023-03-23T01:36:56;14.00;58.80
23233;DHT22;11785;49.500;8.288;2023-03-23T01:39:22;14.00;58.80
23233;DHT22;11785;49.500;8.288;2023-03-23T01:41:48;14.00;58.80
23233;DHT22;11785;49.500;8.288;2023-03-23T01:46:43;14.10;58.80
23233;DHT22;11785;49.500;8.288;2023-03-23T01:51:44;14.00;58.80
23233;DHT22;11785;49.500;8.288;2023-03-23T01:54:13;14.00;58.80
23233;DHT22;11785;49.500;8.288;2023-03-23T01:56:49;14.00;58.80
23233;DHT22;11785;49.500;8.288;2023-03-23T01:59:15;14.00;58.80
23233;DHT22;11785;49.500;8.288;2023-03-23T02:01:41;14.00;58.80
23233;DHT22;11785;49.500;8.288;2023-03-23T02:04:11;13.90;58.80
23233;DHT22;11785;49.500;8.288;2023-03-23T02:06:38;14.00;58.80
23233;DHT22;11785;49.500;8.288;2023-03-23T02:09:04;13.90;58.80
23233;DHT22;11785;49.500;8.288;2023-03-23T02:11:32;13.90;58.80
23233;DHT22;11785;49.500;8.288;2023-03-23T02:13:57;13.90;58.80
23233;DHT22;11785;49.500;8.288;2023-03-23T02:19:28;13.90;58.90
23233;DHT22;11785;49.500;8.288;2023-03-23T02:22:40;13.90;58.90
23233;DHT22;11785;49.500;8.288;2023-03-23T02:25:31;13.90;58.90
23233;DHT22;11785;49.500;8.288;2023-03-23T02:33:31;13.80;58.90
23233;DHT22;11785;49.500;8.288;2023-03-23T02:41:30;13.80;58.90
23233;DHT22;11785;49.500;8.288;2023-03-23T02:43:57;13.80;58.90
23233;DHT22;11785;49.500;8.288;2023-03-23T02:46:23;13.80;58.90
23233;DHT22;11785;49.500;8.288;2023-03-23T02:48:50;13.80;58.90
23233;DHT22;11785;49.500;8.288;2023-03-23T02:51:20;13.80;58.90
23233;DHT22;11785;49.500;8.288;2023-03-23T02:53:47;13.80;58.90
23233;DHT22;11785;49.500;8.288;2023-03-23T02:56:14;13.80;58.90
23233;DHT22;11785;49.500;8.288;2023-03-23T02:58:40;13.80;58.90
23233;DHT22;11785;49.500;8.288;2023-03-23T03:03:56;13.80;58.90
23233;DHT22;11785;49.500;8.288;2023-03-23T03:09:29;13.80;58.90
23233;DHT22;11785;49.500;8.288;2023-03-23T03:12:01;13.80;58.90
23233;DHT22;11785;49.500;8.288;2023-03-23T03:14:32;13.80;58.90
23233;DHT22;11785;49.500;8.288;2023-03-23T03:17:04;13.80;58.90
23233;DHT22;11785;49.500;8.288;2023-03-23T03:19:40;13.80;58.90
23233;DHT22;11785;49.500;8.288;2023-03-23T03:22:07;13.90;58.90
23233;DHT22;11785;49.500;8.288;2023-03-23T03:24:34;13.90;58.90
23233;DHT22;11785;49.500;8.288;2023-03-23T03:27:04;13.90;58.90
23233;DHT22;11785;49.500;8.288;2023-03-23T03:29:37;13.90;58.90
23233;DHT22;11785;49.500;8.288;2023-03-23T03:32:12;13.90;58.90
23233;DHT22;11785;49.500;8.288;2023-03-23T03:34:38;14.00;58.80
23233;DHT22;11785;49.500;8.288;2023-03-23T03:37:05;14.00;58.80
23233;DHT22;11785;49.500;8.288;2023-03-23T03:39:34;14.10;58.80
23233;DHT22;11785;49.500;8.288;2023-03-23T03:42:01;14.10;58.80
23233;DHT22;11785;49.500;8.288;2023-03-23T03:44:26;14.00;58.80
23233;DHT22;11785;49.500;8.288;2023-03-23T03:46:52;14.10;58.80
23233;DHT22;11785;49.500;8.288;2023-03-23T03:49:17;14.10;58.80
23233;DHT22;11785;49.500;8.288;2023-03-23T03:51:44;14.10;58.80
23233;DHT22;11785;49.500;8.288;2023-03-23T03:54:09;14.00;58.90
23233;DHT22;11785;49.500;8.288;2023-03-23T03:56:36;14.00;58.90
23233;DHT22;11785;49.500;8.288;2023-03-23T03:59:06;14.00;58.90
23233;DHT22;11785;49.500;8.288;2023-03-23T04:01:32;14.00;58.90
23233;DHT22;11785;49.500;8.288;2023-03-23T04:03:57;14.10;58.80
23233;DHT22;11785;49.500;8.288;2023-03-23T04:06:23;14.10;58.80
23233;DHT22;11785;49.500;8.288;2023-03-23T04:08:49;14.10;58.80
23233;DHT22;11785;49.500;8.288;2023-03-23T04:11:15;14.10;58.80
23233;DHT22;11785;49.500;8.288;2023-03-23T04:13:41;14.20;58.80
23233;DHT22;11785;49.500;8.288;2023-03-23T04:16:07;14.10;58.90
23233;DHT22;11785;49.500;8.288;2023-03-23T04:18:33;14.00;58.90
23233;DHT22;11785;49.500;8.288;2023-03-23T04:21:00;14.00;58.90
23233;DHT22;11785;49.500;8.288;2023-03-23T04:23:28;14.00;59.00
23233;DHT22;11785;49.500;8.288;2023-03-23T04:25:56;13.90;58.90
23233;DHT22;11785;49.500;8.288;2023-03-23T04:28:24;14.00;58.90
23233;DHT22;11785;49.500;8.288;2023-03-23T04:30:53;14.00;58.90
23233;DHT22;11785;49.500;8.288;2023-03-23T04:33:20;14.00;58.90
23233;DHT22;11785;49.500;8.288;2023-03-23T04:35:46;13.90;59.00
23233;DHT22;11785;49.500;8.288;2023-03-23T04:38:14;13.90;59.00
23233;DHT22;11785;49.500;8.288;2023-03-23T04:40:41;13.90;59.00
23233;DHT22;11785;49.500;8.288;2023-03-23T04:43:07;13.90;59.00
23233;DHT22;11785;49.500;8.288;2023-03-23T04:45:33;13.80;59.00
23233;DHT22;11785;49.500;8.288;2023-03-23T04:47:59;13.80;59.00
23233;DHT22;11785;49.500;8.288;2023-03-23T04:53:48;14.00;59.00
23233;DHT22;11785;49.500;8.288;2023-03-23T04:56:14;14.10;58.90
23233;DHT22;11785;49.500;8.288;2023-03-23T04:58:39;14.10;58.90
23233;DHT22;11785;49.500;8.288;2023-03-23T05:01:06;14.20;58.90
23233;DHT22;11785;49.500;8.288;2023-03-23T05:03:31;14.20;58.90
23233;DHT22;11785;49.500;8.288;2023-03-23T05:05:57;14.20;58.90
23233;DHT22;11785;49.500;8.288;2023-03-23T05:08:23;14.20;58.90
23233;DHT22;11785;49.500;8.288;2023-03-23T05:10:57;14.20;58.90
23233;DHT22;11785;49.500;8.288;2023-03-23T05:13:23;14.20;58.90
23233;DHT22;11785;49.500;8.288;2023-03-23T05:15:49;14.20;58.90
23233;DHT22;11785;49.500;8.288;2023-03-23T05:18:15;14.10;58.90
23233;DHT22;11785;49.500;8.288;2023-03-23T05:20:41;14.10;58.90
23233;DHT22;11785;49.500;8.288;2023-03-23T05:23:08;14.10;59.00
23233;DHT22;11785;49.500;8.288;2023-03-23T05:25:34;14.00;59.00
23233;DHT22;11785;49.500;8.288;2023-03-23T05:28:04;13.90;59.10
23233;DHT22;11785;49.500;8.288;2023-03-23T05:30:30;13.90;59.10
23233;DHT22;11785;49.500;8.288;2023-03-23T05:32:55;13.90;59.10
23233;DHT22;11785;49.500;8.288;2023-03-23T05:35:21;13.90;59.10
23233;DHT22;11785;49.500;8.288;2023-03-23T05:37:47;13.80;59.20
23233;DHT22;11785;49.500;8.288;2023-03-23T05:40:13;13.80;59.20
23233;DHT22;11785;49.500;8.288;2023-03-23T05:42:40;13.70;59.20
23233;DHT22;11785;49.500;8.288;2023-03-23T05:45:07;13.70;59.20
23233;DHT22;11785;49.500;8.288;2023-03-23T05:47:34;13.70;59.20
23233;DHT22;11785;49.500;8.288;2023-03-23T05:50:00;13.80;59.20
23233;DHT22;11785;49.500;8.288;2023-03-23T05:52:26;13.90;59.10
23233;DHT22;11785;49.500;8.288;2023-03-23T05:54:52;13.90;59.10
23233;DHT22;11785;49.500;8.288;2023-03-23T05:57:19;14.00;59.10
23233;DHT22;11785;49.500;8.288;2023-03-23T05:59:47;13.90;59.10
23233;DHT22;11785;49.500;8.288;2023-03-23T06:02:12;14.00;59.10
23233;DHT22;11785;49.500;8.288;2023-03-23T06:04:39;14.00;59.10
23233;DHT22;11785;49.500;8.288;2023-03-23T06:07:07;14.10;59.10
23233;DHT22;11785;49.500;8.288;2023-03-23T06:09:34;14.10;59.10
23233;DHT22;11785;49.500;8.288;2023-03-23T06:12:00;14.10;59.10
23233;DHT22;11785;49.500;8.288;2023-03-23T06:14:26;14.10;59.10
23233;DHT22;11785;49.500;8.288;2023-03-23T06:16:51;14.20;59.10
23233;DHT22;11785;49.500;8.288;2023-03-23T06:19:17;14.10;59.10
23233;DHT22;11785;49.500;8.288;2023-03-23T06:21:42;14.10;59.10
23233;DHT22;11785;49.500;8.288;2023-03-23T06:24:09;14.10;59.10
23233;DHT22;11785;49.500;8.288;2023-03-23T06:26:37;14.20;59.10
23233;DHT22;11785;49.500;8.288;2023-03-23T06:29:04;14.10;59.10
23233;DHT22;11785;49.500;8.288;2023-03-23T06:31:44;14.20;59.10
23233;DHT22;11785;49.500;8.288;2023-03-23T06:34:10;14.20;59.10
23233;DHT22;11785;49.500;8.288;2023-03-23T06:36:37;14.20;59.10
23233;DHT22;11785;49.500;8.288;2023-03-23T06:39:04;14.20;59.10
23233;DHT22;11785;49.500;8.288;2023-03-23T06:41:31;14.20;59.10
23233;DHT22;11785;49.500;8.288;2023-03-23T06:43:58;14.20;59.10
23233;DHT22;11785;49.500;8.288;2023-03-23T06:46:23;14.10;59.10
23233;DHT22;11785;49.500;8.288;2023-03-23T06:48:49;14.10;59.10
23233;DHT22;11785;49.500;8.288;2023-03-23T06:51:16;14.10;59.10
23233;DHT22;11785;49.500;8.288;2023-03-23T06:53:42;14.10;59.10
23233;DHT22;11785;49.500;8.288;2023-03-23T06:56:08;14.00;59.20
23233;DHT22;11785;49.500;8.288;2023-03-23T06:58:34;14.00;59.20
23233;DHT22;11785;49.500;8.288;2023-03-23T07:01:00;14.00;59.20
23233;DHT22;11785;49.500;8.288;2023-03-23T07:03:26;14.00;59.20
23233;DHT22;11785;49.500;8.288;2023-03-23T07:05:53;14.00;59.20
23233;DHT22;11785;49.500;8.288;2023-03-23T07:08:19;13.90;59.20
23233;DHT22;11785;49.500;8.288;2023-03-23T07:10:46;13.80;59.30
23233;DHT22;11785;49.500;8.288;2023-03-23T07:13:11;13.80;59.30
23233;DHT22;11785;49.500;8.288;2023-03-23T07:15:38;13.80;59.30
23233;DHT22;11785;49.500;8.288;2023-03-23T07:18:04;13.80;59.30
23233;DHT22;11785;49.500;8.288;2023-03-23T07:20:29;13.80;59.30
23233;DHT22;11785;49.500;8.288;2023-03-23T07:22:55;13.80;59.30
23233;DHT22;11785;49.500;8.288;2023-03-23T07:25:21;13.80;59.30
23233;DHT22;11785;49.500;8.288;2023-03-23T07:27:47;13.80;59.30
23233;DHT22;11785;49.500;8.288;2023-03-23T07:30:13;13.80;59.30
23233;DHT22;11785;49.500;8.288;2023-03-23T07:32:40;13.80;59.30
23233;DHT22;11785;49.500;8.288;2023-03-23T07:35:07;13.80;59.30
23233;DHT22;11785;49.500;8.288;2023-03-23T07:37:33;13.80;59.40
23233;DHT22;11785;49.500;8.288;2023-03-23T07:39:59;13.70;59.40
23233;DHT22;11785;49.500;8.288;2023-03-23T07:42:24;13.60;59.40
23233;DHT22;11785;49.500;8.288;2023-03-23T07:44:50;13.60;59.40
23233;DHT22;11785;49.500;8.288;2023-03-23T07:47:16;13.60;59.50
23233;DHT22;11785;49.500;8.288;2023-03-23T07:49:43;13.50;59.50
23233;DHT22;11785;49.500;8.288;2023-03-23T07:52:08;13.50;59.50
23233;DHT22;11785;49.500;8.288;2023-03-23T07:54:36;13.50;59.50
23233;DHT22;11785;49.500;8.288;2023-03-23T07:57:02;13.50;59.50
23233;DHT22;11785;49.500;8.288;2023-03-23T07:59:27;13.60;59.50
23233;DHT22;11785;49.500;8.288;2023-03-23T08:01:53;13.60;59.50
23233;DHT22;11785;49.500;8.288;2023-03-23T08:04:19;13.70;59.50
23233;DHT22;11785;49.500;8.288;2023-03-23T08:06:44;13.70;59.50
23233;DHT22;11785;49.500;8.288;2023-03-23T08:09:10;13.70;59.50
23233;DHT22;11785;49.500;8.288;2023-03-23T08:11:37;13.70;59.50
23233;DHT22;11785;49.500;8.288;2023-03-23T08:14:04;13.70;59.50
23233;DHT22;11785;49.500;8.288;2023-03-23T08:16:31;13.80;59.50
23233;DHT22;11785;49.500;8.288;2023-03-23T08:18:57;13.90;59.40
23233;DHT22;11785;49.500;8.288;2023-03-23T08:21:23;13.80;59.40
23233;DHT22;11785;49.500;8.288;2023-03-23T08:23:49;13.80;59.40
23233;DHT22;11785;49.500;8.288;2023-03-23T08:26:15;13.80;59.40
23233;DHT22;11785;49.500;8.288;2023-03-23T08:28:40;13.80;59.40
23233;DHT22;11785;49.500;8.288;2023-03-23T08:31:12;13.80;59.40
23233;DHT22;11785;49.500;8.288;2023-03-23T08:33:38;13.90;59.40
23233;DHT22;11785;49.500;8.288;2023-03-23T08:36:05;13.90;59.40
23233;DHT22;11785;49.500;8.288;2023-03-23T08:38:31;14.00;59.40
23233;DHT22;11785;49.500;8.288;2023-03-23T08:41:04;14.00;59.40
23233;DHT22;11785;49.500;8.288;2023-03-23T08:43:33;13.90;59.40
23233;DHT22;11785;49.500;8.288;2023-03-23T08:46:00;14.10;59.40
23233;DHT22;11785;49.500;8.288;2023-03-23T08:48:32;14.20;59.30
23233;DHT22;11785;49.500;8.288;2023-03-23T08:50:59;14.30;59.30
23233;DHT22;11785;49.500;8.288;2023-03-23T08:53:25;14.30;59.30
23233;DHT22;11785;49.500;8.288;2023-03-23T08:55:51;14.40;59.20
23233;DHT22;11785;49.500;8.288;2023-03-23T08:58:17;14.50;59.20
23233;DHT22;11785;49.500;8.288;2023-03-23T09:00:43;14.40;59.20
23233;DHT22;11785;49.500;8.288;2023-03-23T09:03:09;14.40;59.20
23233;DHT22;11785;49.500;8.288;2023-03-23T09:05:34;14.40;59.20
23233;DHT22;11785;49.500;8.288;2023-03-23T09:08:01;14.50;59.20
23233;DHT22;11785;49.500;8.288;2023-03-23T09:10:29;14.60;59.20
23233;DHT22;11785;49.500;8.288;2023-03-23T09:12:55;14.60;59.20
23233;DHT22;11785;49.500;8.288;2023-03-23T09:15:22;14.60;59.20
23233;DHT22;11785;49.500;8.288;2023-03-23T09:17:49;14.60;59.20
23233;DHT22;11785;49.500;8.288;2023-03-23T09:20:18;14.60;59.20
23233;DHT22;11785;49.500;8.288;2023-03-23T09:22:49;14.60;59.20
23233;DHT22;11785;49.500;8.288;2023-03-23T09:25:16;14.60;59.20
23233;DHT22;11785;49.500;8.288;2023-03-23T09:27:44;14.60;59.10
23233;DHT22;11785;49.500;8.288;2023-03-23T09:30:13;14.50;59.20
23233;DHT22;11785;49.500;8.288;2023-03-23T09:32:40;14.40;59.20
23233;DHT22;11785;49.500;8.288;2023-03-23T09:35:08;14.20;59.30
23233;DHT22;11785;49.500;8.288;2023-03-23T09:37:35;14.10;59.30
23233;DHT22;11785;49.500;8.288;2023-03-23T09:40:05;13.90;59.50
23233;DHT22;11785;49.500;8.288;2023-03-23T09:50:55;13.50;59.70
23233;DHT22;11785;49.500;8.288;2023-03-23T09:53:32;13.50;59.70
23233;DHT22;11785;49.500;8.288;2023-03-23T09:56:02;13.50;59.70
23233;DHT22;11785;49.500;8.288;2023-03-23T09:58:37;13.50;59.70
23233;DHT22;11785;49.500;8.288;2023-03-23T10:01:19;13.50;59.70
23233;DHT22;11785;49.500;8.288;2023-03-23T10:03:46;13.60;59.70
23233;DHT22;11785;49.500;8.288;2023-03-23T10:06:17;13.90;59.60
23233;DHT22;11785;49.500;8.288;2023-03-23T10:08:51;14.20;59.50
23233;DHT22;11785;49.500;8.288;2023-03-23T10:19:33;15.20;59.20
23233;DHT22;11785;49.500;8.288;2023-03-23T10:22:02;15.20;59.20
23233;DHT22;11785;49.500;8.288;2023-03-23T10:24:39;15.10;59.20
23233;DHT22;11785;49.500;8.288;2023-03-23T10:27:19;15.00;59.30
23233;DHT22;11785;49.500;8.288;2023-03-23T10:30:03;15.30;59.20
23233;DHT22;11785;49.500;8.288;2023-03-23T10:35:51;15.90;59.00
23233;DHT22;11785;49.500;8.288;2023-03-23T10:38:45;15.70;59.00
23233;DHT22;11785;49.500;8.288;2023-03-23T10:41:15;15.30;59.10
23233;DHT22;11785;49.500;8.288;2023-03-23T10:43:42;15.10;59.20
23233;DHT22;11785;49.500;8.288;2023-03-23T10:49:01;14.90;59.20
23233;DHT22;11785;49.500;8.288;2023-03-23T10:51:36;14.80;59.30
23233;DHT22;11785;49.500;8.288;2023-03-23T10:54:03;14.70;59.30
23233;DHT22;11785;49.500;8.288;2023-03-23T10:56:39;14.80;59.30
23233;DHT22;11785;49.500;8.288;2023-03-23T10:59:20;14.80;59.30
23233;DHT22;11785;49.500;8.288;2023-03-23T11:01:51;14.70;59.30
23233;DHT22;11785;49.500;8.288;2023-03-23T11:04:18;14.70;59.40
23233;DHT22;11785;49.500;8.288;2023-03-23T11:06:54;14.50;59.40
23233;DHT22;11785;49.500;8.288;2023-03-23T11:09:36;14.30;59.50
23233;DHT22;11785;49.500;8.288;2023-03-23T11:12:02;14.10;59.60
23233;DHT22;11785;49.500;8.288;2023-03-23T11:14:31;14.00;59.70
23233;DHT22;11785;49.500;8.288;2023-03-23T11:17:03;14.00;59.70
23233;DHT22;11785;49.500;8.288;2023-03-23T11:19:34;14.00;59.70
23233;DHT22;11785;49.500;8.288;2023-03-23T11:24:32;14.40;59.60
23233;DHT22;11785;49.500;8.288;2023-03-23T11:26:58;14.80;59.50
23233;DHT22;11785;49.500;8.288;2023-03-23T11:29:27;15.20;59.40
23233;DHT22;11785;49.500;8.288;2023-03-23T11:34:59;15.60;59.20
23233;DHT22;11785;49.500;8.288;2023-03-23T11:40:31;15.60;59.20
23233;DHT22;11785;49.500;8.288;2023-03-23T11:42:59;15.40;59.20
23233;DHT22;11785;49.500;8.288;2023-03-23T11:48:27;15.20;59.20
23233;DHT22;11785;49.500;8.288;2023-03-23T11:50:57;15.10;59.20
23233;DHT22;11785;49.500;8.288;2023-03-23T11:53:46;15.20;59.20
23233;DHT22;11785;49.500;8.288;2023-03-23T11:58:46;15.50;59.10
23233;DHT22;11785;49.500;8.288;2023-03-23T12:10:30;15.80;59.00
23233;DHT22;11785;49.500;8.288;2023-03-23T12:12:56;15.50;59.10
23233;DHT22;11785;49.500;8.288;2023-03-23T12:18:55;15.40;59.10
23233;DHT22;11785;49.500;8.288;2023-03-23T12:21:32;15.60;59.10
23233;DHT22;11785;49.500;8.288;2023-03-23T12:30:37;15.70;59.00
23233;DHT22;11785;49.500;8.288;2023-03-23T12:33:11;15.60;59.00
23233;DHT22;11785;49.500;8.288;2023-03-23T12:41:16;15.50;59.10
23233;DHT22;11785;49.500;8.288;2023-03-23T12:44:02;15.30;59.10
23233;DHT22;11785;49.500;8.288;2023-03-23T12:49:16;15.30;59.10
23233;DHT22;11785;49.500;8.288;2023-03-23T12:54:45;15.90;59.00
23233;DHT22;11785;49.500;8.288;2023-03-23T12:58:25;16.10;58.90
23233;DHT22;11785;49.500;8.288;2023-03-23T13:03:37;16.40;58.90
23233;DHT22;11785;49.500;8.288;2023-03-23T13:06:05;16.20;58.90
23233;DHT22;11785;49.500;8.288;2023-03-23T13:08:41;16.00;58.90
23233;DHT22;11785;49.500;8.288;2023-03-23T13:11:19;16.00;59.00
23233;DHT22;11785;49.500;8.288;2023-03-23T13:13:52;15.90;59.00
23233;DHT22;11785;49.500;8.288;2023-03-23T13:19:08;15.60;59.00
23233;DHT22;11785;49.500;8.288;2023-03-23T13:24:50;15.40;59.10
23233;DHT22;11785;49.500;8.288;2023-03-23T13:27:16;15.40;59.10
23233;DHT22;11785;49.500;8.288;2023-03-23T13:29:45;15.40;59.10
23233;DHT22;11785;49.500;8.288;2023-03-23T13:32:23;15.30;59.10
23233;DHT22;11785;49.500;8.288;2023-03-23T13:34:53;15.30;59.10
23233;DHT22;11785;49.500;8.288;2023-03-23T13:37:24;15.30;59.10
23233;DHT22;11785;49.500;8.288;2023-03-23T13:42:36;15.10;59.20
23233;DHT22;11785;49.500;8.288;2023-03-23T13:45:20;15.10;59.20
23233;DHT22;11785;49.500;8.288;2023-03-23T13:47:46;15.10;59.20
23233;DHT22;11785;49.500;8.288;2023-03-23T13:50:27;15.10;59.20
23233;DHT22;11785;49.500;8.288;2023-03-23T13:52:58;15.00;59.20
23233;DHT22;11785;49.500;8.288;2023-03-23T14:03:10;15.00;59.20
23233;DHT22;11785;49.500;8.288;2023-03-23T14:05:38;15.00;59.20
23233;DHT22;11785;49.500;8.288;2023-03-23T14:13:20;15.10;59.20
23233;DHT22;11785;49.500;8.288;2023-03-23T14:16:18;15.20;59.10
23233;DHT22;11785;49.500;8.288;2023-03-23T14:18:53;15.60;59.10
23233;DHT22;11785;49.500;8.288;2023-03-23T14:21:33;15.70;59.00
23233;DHT22;11785;49.500;8.288;2023-03-23T14:24:04;15.70;59.00
23233;DHT22;11785;49.500;8.288;2023-03-23T14:26:34;15.70;59.00
23233;DHT22;11785;49.500;8.288;2023-03-23T14:29:00;15.70;59.00
23233;DHT22;11785;49.500;8.288;2023-03-23T14:31:27;15.70;59.00
23233;DHT22;11785;49.500;8.288;2023-03-23T14:33:55;15.80;59.00
23233;DHT22;11785;49.500;8.288;2023-03-23T14:36:23;15.80;59.00
23233;DHT22;11785;49.500;8.288;2023-03-23T14:38:59;15.70;59.00
23233;DHT22;11785;49.500;8.288;2023-03-23T14:41:30;15.60;59.00
23233;DHT22;11785;49.500;8.288;2023-03-23T14:43:57;15.60;59.00
23233;DHT22;11785;49.500;8.288;2023-03-23T14:46:24;15.50;59.00
23233;DHT22;11785;49.500;8.288;2023-03-23T14:48:51;15.60;59.00
23233;DHT22;11785;49.500;8.288;2023-03-23T14:51:20;15.60;59.00
23233;DHT22;11785;49.500;8.288;2023-03-23T14:53:47;15.60;59.10
23233;DHT22;11785;49.500;8.288;2023-03-23T14:56:18;15.50;59.10
23233;DHT22;11785;49.500;8.288;2023-03-23T14:58:46;15.40;59.10
23233;DHT22;11785;49.500;8.288;2023-03-23T15:01:18;15.30;59.20
23233;DHT22;11785;49.500;8.288;2023-03-23T15:03:53;15.20;59.20
23233;DHT22;11785;49.500;8.288;2023-03-23T15:06:21;15.10;59.20
23233;DHT22;11785;49.500;8.288;2023-03-23T15:08:50;15.10;59.30
23233;DHT22;11785;49.500;8.288;2023-03-23T15:13:47;15.10;59.30
23233;DHT22;11785;49.500;8.288;2023-03-23T15:16:22;15.00;59.30
23233;DHT22;11785;49.500;8.288;2023-03-23T15:19:32;15.00;59.30
23233;DHT22;11785;49.500;8.288;2023-03-23T15:21:57;15.10;59.30
23233;DHT22;11785;49.500;8.288;2023-03-23T15:24:37;15.30;59.20
23233;DHT22;11785;49.500;8.288;2023-03-23T15:27:13;15.40;59.20
23233;DHT22;11785;49.500;8.288;2023-03-23T15:29:53;15.30;59.20
23233;DHT22;11785;49.500;8.288;2023-03-23T15:32:25;15.40;59.20
23233;DHT22;11785;49.500;8.288;2023-03-23T15:34:51;15.50;59.20
23233;DHT22;11785;49.500;8.288;2023-03-23T15:37:26;15.60;59.20
23233;DHT22;11785;49.500;8.288;2023-03-23T15:39:52;15.60;59.10
23233;DHT22;11785;49.500;8.288;2023-03-23T15:42:23;15.60;59.20
23233;DHT22;11785;49.500;8.288;2023-03-23T15:47:44;15.50;59.20
23233;DHT22;11785;49.500;8.288;2023-03-23T15:50:33;15.40;59.20
23233;DHT22;11785;49.500;8.288;2023-03-23T15:52:59;15.30;59.30
23233;DHT22;11785;49.500;8.288;2023-03-23T15:57:53;15.40;59.20
23233;DHT22;11785;49.500;8.288;2023-03-23T16:00:21;15.30;59.30
23233;DHT22;11785;49.500;8.288;2023-03-23T16:02:56;15.20;59.30
23233;DHT22;11785;49.500;8.288;2023-03-23T16:05:23;15.30;59.30
23233;DHT22;11785;49.500;8.288;2023-03-23T16:07:49;15.40;59.20
23233;DHT22;11785;49.500;8.288;2023-03-23T16:10:20;15.40;59.20
23233;DHT22;11785;49.500;8.288;2023-03-23T16:12:46;15.60;59.20
23233;DHT22;11785;49.500;8.288;2023-03-23T16:15:12;15.70;59.20
23233;DHT22;11785;49.500;8.288;2023-03-23T16:17:38;15.80;59.20
23233;DHT22;11785;49.500;8.288;2023-03-23T16:20:16;15.80;59.20
23233;DHT22;11785;49.500;8.288;2023-03-23T16:22:42;15.70;59.20
23233;DHT22;11785;49.500;8.288;2023-03-23T16:25:08;15.60;59.20
23233;DHT22;11785;49.500;8.288;2023-03-23T16:27:35;15.40;59.30
23233;DHT22;11785;49.500;8.288;2023-03-23T16:30:01;15.30;59.30
23233;DHT22;11785;49.500;8.288;2023-03-23T16:32:28;15.20;59.30
23233;DHT22;11785;49.500;8.288;2023-03-23T16:34:54;15.10;59.40
23233;DHT22;11785;49.500;8.288;2023-03-23T16:37:20;15.10;59.40
23233;DHT22;11785;49.500;8.288;2023-03-23T16:39:46;15.00;59.40
23233;DHT22;11785;49.500;8.288;2023-03-23T16:42:11;15.00;59.40
23233;DHT22;11785;49.500;8.288;2023-03-23T16:44:37;14.90;59.40
23233;DHT22;11785;49.500;8.288;2023-03-23T16:47:03;14.90;59.40
23233;DHT22;11785;49.500;8.288;2023-03-23T16:49:28;14.90;59.40
23233;DHT22;11785;49.500;8.288;2023-03-23T16:51:54;14.90;59.40
23233;DHT22;11785;49.500;8.288;2023-03-23T16:54:19;14.90;59.40
23233;DHT22;11785;49.500;8.288;2023-03-23T16:56:45;14.90;59.40
23233;DHT22;11785;49.500;8.288;2023-03-23T16:59:13;14.90;59.40
23233;DHT22;11785;49.500;8.288;2023-03-23T17:01:38;14.90;59.40
23233;DHT22;11785;49.500;8.288;2023-03-23T17:04:05;14.90;59.50
23233;DHT22;11785;49.500;8.288;2023-03-23T17:06:31;14.90;59.50
23233;DHT22;11785;49.500;8.288;2023-03-23T17:08:57;14.90;59.50
23233;DHT22;11785;49.500;8.288;2023-03-23T17:11:22;14.80;59.50
23233;DHT22;11785;49.500;8.288;2023-03-23T17:13:48;14.80;59.50
23233;DHT22;11785;49.500;8.288;2023-03-23T17:16:14;14.70;59.50
23233;DHT22;11785;49.500;8.288;2023-03-23T17:18:39;14.70;59.50
23233;DHT22;11785;49.500;8.288;2023-03-23T17:21:05;14.70;59.50
23233;DHT22;11785;49.500;8.288;2023-03-23T17:23:31;14.70;59.50
23233;DHT22;11785;49.500;8.288;2023-03-23T17:25:57;14.60;59.60
23233;DHT22;11785;49.500;8.288;2023-03-23T17:28:23;14.60;59.60
23233;DHT22;11785;49.500;8.288;2023-03-23T17:30:50;14.50;59.60
23233;DHT22;11785;49.500;8.288;2023-03-23T17:33:16;14.50;59.60
23233;DHT22;11785;49.500;8.288;2023-03-23T17:35:45;14.40;59.60
23233;DHT22;11785;49.500;8.288;2023-03-23T17:38:10;14.30;59.70
23233;DHT22;11785;49.500;8.288;2023-03-23T17:40:36;14.20;59.70
23233;DHT22;11785;49.500;8.288;2023-03-23T17:43:02;14.20;59.70
23233;DHT22;11785;49.500;8.288;2023-03-23T17:45:28;14.20;59.70
23233;DHT22;11785;49.500;8.288;2023-03-23T17:47:54;14.10;59.70